createdAt,value
2023-04-29T00:00:34.820Z,15.31
2023-04-29T00:03:01.757Z,15.31
2023-04-29T00:05:28.423Z,15.28
2023-04-29T00:07:54.912Z,15.30
2023-04-29T00:10:21.311Z,15.30
2023-04-29T00:12:48.753Z,15.29
2023-04-29T00:15:15.344Z,15.26
2023-04-29T00:17:41.898Z,15.19
2023-04-29T00:20:09.059Z,15.06
2023-04-29T00:22:35.561Z,15.01
2023-04-29T00:25:01.990Z,14.99
2023-04-29T00:27:28.423Z,14.92
2023-04-29T00:29:55.010Z,14.89
2023-04-29T00:32:22.012Z,14.83
2023-04-29T00:34:48.521Z,14.80
2023-04-29T00:37:15.300Z,14.79
2023-04-29T00:39:42.090Z,14.80
2023-04-29T00:42:09.929Z,14.77
2023-04-29T00:44:36.438Z,14.74
2023-04-29T00:47:02.884Z,14.70
2023-04-29T00:49:29.275Z,14.72
2023-04-29T00:51:57.819Z,14.69
2023-04-29T00:54:24.327Z,14.67
2023-04-29T00:56:51.791Z,14.66
2023-04-29T00:59:18.667Z,14.63
2023-04-29T01:01:45.487Z,14.64
2023-04-29T01:04:12.195Z,14.62
2023-04-29T01:07:09.958Z,14.59
2023-04-29T01:10:07.691Z,14.58
2023-04-29T01:12:37.051Z,14.57
2023-04-29T01:15:21.164Z,14.55
2023-04-29T01:18:05.757Z,14.57
2023-04-29T01:20:33.406Z,14.55
2023-04-29T01:22:59.821Z,14.53
2023-04-29T01:25:26.460Z,14.47
2023-04-29T01:28:03.958Z,14.44
2023-04-29T01:30:50.226Z,14.42
2023-04-29T01:33:39.084Z,14.41
2023-04-29T01:36:30.102Z,14.38
2023-04-29T01:39:03.303Z,14.33
2023-04-29T01:41:49.301Z,14.31
2023-04-29T01:44:18.592Z,14.28
2023-04-29T01:46:52.217Z,14.28
2023-04-29T01:49:24.729Z,14.24
2023-04-29T01:51:51.325Z,14.25
2023-04-29T01:54:18.027Z,14.19
2023-04-29T01:56:44.865Z,14.05
2023-04-29T01:59:11.846Z,13.96
2023-04-29T02:01:38.236Z,13.90
2023-04-29T02:04:05.155Z,13.86
2023-04-29T02:06:32.217Z,13.85
2023-04-29T02:08:58.727Z,13.82
2023-04-29T02:11:25.216Z,13.81
2023-04-29T02:13:51.684Z,13.76
2023-04-29T02:16:18.889Z,13.80
2023-04-29T02:18:46.104Z,13.80
2023-04-29T02:21:12.550Z,13.77
2023-04-29T02:23:39.026Z,13.77
2023-04-29T02:26:06.353Z,13.79
2023-04-29T02:28:34.806Z,13.79
2023-04-29T02:31:01.280Z,13.77
2023-04-29T02:33:28.078Z,13.73
2023-04-29T02:35:54.487Z,13.69
2023-04-29T02:38:21.049Z,13.69
2023-04-29T02:40:47.658Z,13.68
2023-04-29T02:43:14.096Z,13.64
2023-04-29T02:45:40.615Z,13.61
2023-04-29T02:48:07.572Z,13.56
2023-04-29T02:50:34.087Z,13.56
2023-04-29T02:53:00.588Z,13.52
2023-04-29T02:55:27.016Z,13.51
2023-04-29T02:57:53.494Z,13.49
2023-04-29T03:00:20.690Z,13.47
2023-04-29T03:02:47.326Z,13.45
2023-04-29T03:05:13.892Z,13.40
2023-04-29T03:07:40.311Z,13.38
2023-04-29T03:10:07.408Z,13.34
2023-04-29T03:12:34.717Z,13.33
2023-04-29T03:15:01.246Z,13.34
2023-04-29T03:17:27.743Z,13.34
2023-04-29T03:19:54.592Z,13.34
2023-04-29T03:22:21.260Z,13.32
2023-04-29T03:24:47.690Z,13.32
2023-04-29T03:27:14.172Z,13.28
2023-04-29T03:29:40.642Z,13.30
2023-04-29T03:32:07.352Z,13.30
2023-04-29T03:34:34.463Z,13.33
2023-04-29T03:37:01.298Z,13.34
2023-04-29T03:39:32.247Z,13.33
2023-04-29T03:41:59.573Z,13.32
2023-04-29T03:44:26.336Z,13.32
2023-04-29T03:46:52.824Z,13.30
2023-04-29T03:49:19.234Z,13.29
2023-04-29T03:51:45.697Z,13.27
2023-04-29T03:54:13.117Z,13.24
2023-04-29T03:56:39.801Z,13.20
2023-04-29T03:59:06.403Z,13.15
2023-04-29T04:01:33.322Z,13.15
2023-04-29T04:04:00.159Z,13.09
2023-04-29T04:06:26.796Z,13.12
2023-04-29T04:08:53.357Z,13.14
2023-04-29T04:11:19.754Z,13.11
2023-04-29T04:13:46.200Z,13.13
2023-04-29T04:16:12.884Z,13.15
2023-04-29T04:18:39.530Z,13.16
2023-04-29T04:21:10.243Z,13.16
2023-04-29T04:23:40.444Z,13.09
2023-04-29T04:26:07.638Z,13.09
2023-04-29T04:28:34.134Z,13.11
2023-04-29T04:31:00.573Z,13.07
2023-04-29T04:33:27.406Z,13.08
2023-04-29T04:35:54.407Z,13.00
2023-04-29T04:38:20.891Z,12.97
2023-04-29T04:40:47.334Z,12.97
2023-04-29T04:43:13.764Z,12.93
2023-04-29T04:45:40.218Z,12.93
2023-04-29T04:48:06.970Z,12.92
2023-04-29T04:50:33.490Z,12.91
2023-04-29T04:52:59.910Z,12.88
2023-04-29T04:55:26.344Z,12.89
2023-04-29T04:57:52.797Z,12.84
2023-04-29T05:00:19.555Z,12.84
2023-04-29T05:02:46.191Z,12.77
2023-04-29T05:05:13.345Z,12.73
2023-04-29T05:07:39.882Z,12.71
2023-04-29T05:10:08.430Z,12.64
2023-04-29T05:12:35.380Z,12.61
2023-04-29T05:15:02.542Z,12.63
2023-04-29T05:17:29.126Z,12.59
2023-04-29T05:19:55.853Z,12.58
2023-04-29T05:22:22.387Z,12.56
2023-04-29T05:24:48.848Z,12.57
2023-04-29T05:27:15.624Z,12.55
2023-04-29T05:29:42.034Z,12.54
2023-04-29T05:32:08.430Z,12.45
2023-04-29T05:34:34.847Z,12.40
2023-04-29T05:37:01.270Z,12.35
2023-04-29T05:39:27.750Z,12.32
2023-04-29T05:41:54.129Z,12.29
2023-04-29T05:44:20.719Z,12.20
2023-04-29T05:46:48.631Z,12.19
2023-04-29T05:49:15.915Z,12.13
2023-04-29T05:51:42.305Z,12.12
2023-04-29T05:54:08.752Z,12.11
2023-04-29T05:56:35.268Z,12.10
2023-04-29T05:59:01.687Z,12.10
2023-04-29T06:01:28.094Z,12.07
2023-04-29T06:03:54.735Z,12.06
2023-04-29T06:06:21.426Z,12.03
2023-04-29T06:08:48.276Z,12.06
2023-04-29T06:11:14.729Z,12.05
2023-04-29T06:13:41.174Z,12.09
2023-04-29T06:16:07.942Z,12.11
2023-04-29T06:18:34.442Z,12.13
2023-04-29T06:21:00.867Z,12.11
2023-04-29T06:23:27.228Z,12.11
2023-04-29T06:25:53.609Z,12.13
2023-04-29T06:28:20.211Z,12.13
2023-04-29T06:30:46.679Z,12.10
2023-04-29T06:33:13.844Z,12.08
2023-04-29T06:35:41.225Z,12.10
2023-04-29T06:38:10.313Z,12.08
2023-04-29T06:40:36.783Z,12.09
2023-04-29T06:43:04.611Z,12.06
2023-04-29T06:45:31.660Z,12.04
2023-04-29T06:47:58.135Z,12.02
2023-04-29T06:50:24.653Z,12.04
2023-04-29T06:52:51.096Z,11.98
2023-04-29T06:55:17.935Z,11.88
2023-04-29T06:57:44.345Z,11.83
2023-04-29T07:00:11.534Z,11.83
2023-04-29T07:02:39.159Z,11.83
2023-04-29T07:05:06.481Z,11.84
2023-04-29T07:07:33.041Z,11.89
2023-04-29T07:09:59.505Z,11.90
2023-04-29T07:12:26.478Z,11.93
2023-04-29T07:14:53.236Z,11.87
2023-04-29T07:17:20.661Z,11.87
2023-04-29T07:19:47.225Z,11.88
2023-04-29T07:22:13.684Z,11.84
2023-04-29T07:24:40.102Z,11.91
2023-04-29T07:27:06.972Z,11.93
2023-04-29T07:29:33.563Z,11.95
2023-04-29T07:31:59.975Z,12.02
2023-04-29T07:34:26.436Z,12.07
2023-04-29T07:36:52.836Z,12.14
2023-04-29T07:39:19.370Z,12.13
2023-04-29T07:41:45.936Z,12.12
2023-04-29T07:44:12.364Z,12.12
2023-04-29T07:46:38.932Z,12.13
2023-04-29T07:49:06.967Z,12.13
2023-04-29T07:51:33.543Z,12.13
2023-04-29T07:54:00.054Z,12.13
2023-04-29T07:56:26.786Z,12.18
2023-04-29T07:58:53.212Z,12.17
2023-04-29T08:01:19.634Z,12.19
2023-04-29T08:03:46.480Z,12.22
2023-04-29T08:06:13.316Z,12.22
2023-04-29T08:08:39.871Z,12.25
2023-04-29T08:11:06.716Z,12.25
2023-04-29T08:13:33.359Z,12.29
2023-04-29T08:15:59.871Z,12.32
2023-04-29T08:18:26.539Z,12.37
2023-04-29T08:20:53.237Z,12.33
2023-04-29T08:23:19.672Z,12.33
2023-04-29T08:25:46.334Z,12.33
2023-04-29T08:28:13.139Z,12.36
2023-04-29T08:30:41.118Z,12.39
2023-04-29T08:33:08.299Z,12.44
2023-04-29T08:35:37.556Z,12.47
2023-04-29T08:38:07.857Z,12.49
2023-04-29T08:40:35.766Z,12.51
2023-04-29T08:43:04.486Z,12.55
2023-04-29T08:45:32.530Z,12.58
2023-04-29T08:47:59.270Z,12.69
2023-04-29T08:50:27.993Z,12.77
2023-04-29T08:52:55.964Z,12.81
2023-04-29T08:55:22.530Z,12.86
2023-04-29T08:57:50.574Z,12.91
2023-04-29T09:00:18.471Z,12.97
2023-04-29T09:02:51.235Z,13.09
2023-04-29T09:05:17.882Z,13.13
2023-04-29T09:07:46.035Z,13.15
2023-04-29T09:10:13.065Z,13.14
2023-04-29T09:12:39.510Z,13.16
2023-04-29T09:15:06.889Z,13.19
2023-04-29T09:17:43.262Z,13.22
2023-04-29T09:20:22.080Z,13.24
2023-04-29T09:22:50.789Z,13.22
2023-04-29T09:25:17.762Z,13.14
2023-04-29T09:27:44.259Z,13.18
2023-04-29T09:30:12.537Z,13.17
2023-04-29T09:32:39.803Z,13.20
2023-04-29T09:35:21.247Z,13.23
2023-04-29T09:37:47.804Z,13.25
2023-04-29T09:40:40.738Z,13.28
2023-04-29T09:43:16.023Z,13.36
2023-04-29T09:45:47.378Z,13.46
2023-04-29T09:48:15.683Z,13.62
2023-04-29T09:50:44.031Z,13.75
2023-04-29T09:53:11.798Z,13.83
2023-04-29T09:55:53.741Z,13.83
2023-04-29T09:58:33.819Z,13.78
2023-04-29T10:01:01.644Z,13.73
2023-04-29T10:03:33.501Z,13.65
2023-04-29T10:06:01.623Z,13.68
2023-04-29T10:08:29.789Z,13.70
2023-04-29T10:11:00.251Z,13.68
2023-04-29T10:13:28.360Z,13.62
2023-04-29T10:16:25.449Z,13.54
2023-04-29T10:18:56.475Z,13.42
2023-04-29T10:21:32.308Z,13.43
2023-04-29T10:24:00.170Z,13.37
2023-04-29T10:26:29.145Z,13.36
2023-04-29T10:28:56.870Z,13.34
2023-04-29T10:31:27.489Z,13.35
2023-04-29T10:33:57.609Z,13.30
2023-04-29T10:36:26.158Z,13.22
2023-04-29T10:38:57.165Z,13.18
2023-04-29T10:41:49.381Z,13.14
2023-04-29T10:44:15.839Z,13.11
2023-04-29T10:46:42.331Z,13.06
2023-04-29T10:49:11.214Z,13.08
2023-04-29T10:51:42.837Z,13.11
2023-04-29T10:54:14.429Z,13.04
2023-04-29T10:56:41.919Z,13.03
2023-04-29T10:59:13.169Z,12.97
2023-04-29T11:01:50.360Z,12.90
2023-04-29T11:04:18.509Z,12.92
2023-04-29T11:06:53.092Z,12.94
2023-04-29T11:09:26.787Z,13.03
2023-04-29T11:11:58.010Z,13.13
2023-04-29T11:14:31.565Z,13.25
2023-04-29T11:17:07.787Z,13.36
2023-04-29T11:19:42.103Z,13.56
2023-04-29T11:22:14.067Z,13.74
2023-04-29T11:25:11.450Z,13.86
2023-04-29T11:27:40.235Z,14.00
2023-04-29T11:30:08.793Z,14.12
2023-04-29T11:32:37.886Z,14.28
2023-04-29T11:35:15.567Z,14.40
2023-04-29T11:37:44.878Z,14.43
2023-04-29T11:40:13.261Z,14.47
2023-04-29T11:42:48.016Z,14.50
2023-04-29T11:45:16.702Z,14.44
2023-04-29T11:47:48.337Z,14.41
2023-04-29T11:50:17.791Z,14.30
2023-04-29T11:52:46.832Z,14.20
2023-04-29T11:55:14.532Z,14.10
2023-04-29T11:57:41.049Z,13.99
2023-04-29T12:00:14.287Z,13.98
2023-04-29T12:02:45.037Z,13.95
2023-04-29T12:05:13.272Z,13.89
2023-04-29T12:07:40.196Z,13.87
2023-04-29T12:10:11.027Z,13.81
2023-04-29T12:12:40.797Z,13.86
2023-04-29T12:15:10.115Z,13.93
2023-04-29T12:17:37.466Z,13.91
2023-04-29T12:20:04.578Z,13.97
2023-04-29T12:22:32.265Z,13.96
2023-04-29T12:24:58.738Z,13.97
2023-04-29T12:27:26.557Z,14.01
2023-04-29T12:29:53.200Z,13.99
2023-04-29T12:32:23.875Z,13.97
2023-04-29T12:34:52.906Z,14.01
2023-04-29T12:37:23.442Z,14.00
2023-04-29T12:39:50.789Z,13.98
2023-04-29T12:42:17.703Z,13.92
2023-04-29T12:44:47.108Z,13.86
2023-04-29T12:47:14.662Z,13.85
2023-04-29T12:49:42.506Z,13.76
2023-04-29T12:52:10.460Z,13.77
2023-04-29T12:54:38.067Z,13.73
2023-04-29T12:57:04.593Z,13.72
2023-04-29T12:59:31.174Z,13.70
2023-04-29T13:01:57.658Z,13.70
2023-04-29T13:04:24.647Z,13.70
2023-04-29T13:06:54.315Z,13.73
2023-04-29T13:09:20.710Z,13.75
2023-04-29T13:11:47.244Z,13.78
2023-04-29T13:14:13.684Z,13.80
2023-04-29T13:16:40.972Z,13.69
2023-04-29T13:19:26.498Z,13.65
2023-04-29T13:21:53.918Z,13.65
2023-04-29T13:24:21.028Z,13.63
2023-04-29T13:26:50.939Z,13.58
2023-04-29T13:29:18.812Z,13.53
2023-04-29T13:31:45.336Z,13.48
2023-04-29T13:34:11.758Z,13.46
2023-04-29T13:36:38.624Z,13.48
2023-04-29T13:39:05.016Z,13.51
2023-04-29T13:41:34.915Z,13.52
2023-04-29T13:44:02.361Z,13.48
2023-04-29T13:46:31.528Z,13.43
2023-04-29T13:49:17.270Z,13.46
2023-04-29T13:52:27.298Z,13.49
2023-04-29T13:57:50.320Z,13.59
2023-04-29T13:59:53.335Z,13.60
2023-04-29T14:04:49.900Z,13.64
2023-04-29T14:07:16.746Z,13.64
2023-04-29T14:09:43.348Z,13.67
2023-04-29T14:12:09.780Z,13.65
2023-04-29T14:14:36.181Z,13.69
2023-04-29T14:17:03.679Z,13.74
2023-04-29T14:19:30.318Z,13.77
2023-04-29T14:21:56.761Z,13.76
2023-04-29T14:24:23.313Z,13.80
2023-04-29T14:26:49.766Z,13.83
2023-04-29T14:29:16.156Z,13.85
2023-04-29T14:31:42.613Z,13.86
2023-04-29T14:34:09.546Z,13.92
2023-04-29T14:36:35.998Z,13.96
2023-04-29T14:39:03.976Z,13.95
2023-04-29T14:41:30.433Z,13.93
2023-04-29T14:43:56.874Z,13.90
2023-04-29T14:46:23.420Z,13.88
2023-04-29T14:48:49.917Z,13.83
2023-04-29T14:51:16.376Z,13.82
2023-04-29T14:53:43.029Z,13.74
2023-04-29T14:56:09.532Z,13.71
2023-04-29T14:58:36.019Z,13.68
2023-04-29T15:01:02.455Z,13.66
2023-04-29T15:03:29.182Z,13.62
2023-04-29T15:05:56.289Z,13.60
2023-04-29T15:08:22.782Z,13.56
2023-04-29T15:10:50.095Z,13.57
2023-04-29T15:13:16.731Z,13.64
2023-04-29T15:15:43.275Z,13.66
2023-04-29T15:18:09.797Z,13.73
2023-04-29T15:20:37.198Z,13.77
2023-04-29T15:23:05.117Z,13.85
2023-04-29T15:25:34.246Z,13.90
2023-04-29T15:28:02.091Z,13.89
2023-04-29T15:30:28.820Z,13.97
2023-04-29T15:32:55.705Z,14.04
2023-04-29T15:35:22.641Z,14.06
2023-04-29T15:37:49.535Z,14.14
2023-04-29T15:40:16.922Z,14.21
2023-04-29T15:42:43.467Z,14.25
2023-04-29T15:45:10.511Z,14.23
2023-04-29T15:47:37.002Z,14.27
2023-04-29T15:50:03.602Z,14.30
2023-04-29T15:52:30.022Z,14.34
2023-04-29T15:54:56.483Z,14.37
2023-04-29T15:57:23.096Z,14.40
2023-04-29T15:59:49.510Z,14.43
2023-04-29T16:02:16.004Z,14.46
2023-04-29T16:04:42.500Z,14.46
2023-04-29T16:07:09.247Z,14.47
2023-04-29T16:09:35.991Z,14.46
2023-04-29T16:12:02.452Z,14.50
2023-04-29T16:14:30.000Z,14.53
2023-04-29T16:16:56.677Z,14.50
2023-04-29T16:19:23.288Z,14.48
2023-04-29T16:21:49.786Z,14.44
2023-04-29T16:24:16.283Z,14.37
2023-04-29T16:26:42.859Z,14.32
2023-04-29T16:29:12.320Z,14.30
2023-04-29T16:31:39.472Z,14.26
2023-04-29T16:34:05.986Z,14.23
2023-04-29T16:36:32.791Z,14.22
2023-04-29T16:38:59.230Z,14.16
2023-04-29T16:41:28.449Z,14.15
2023-04-29T16:43:54.893Z,14.12
2023-04-29T16:46:21.652Z,14.11
2023-04-29T16:48:51.246Z,14.08
2023-04-29T16:51:18.812Z,14.04
2023-04-29T16:53:45.653Z,14.04
2023-04-29T16:56:12.357Z,14.04
2023-04-29T16:58:39.000Z,14.03
2023-04-29T17:01:07.280Z,14.02
2023-04-29T17:03:33.812Z,14.01
2023-04-29T17:06:00.573Z,14.01
2023-04-29T17:08:27.242Z,14.00
2023-04-29T17:10:53.975Z,14.01
2023-04-29T17:13:20.784Z,14.03
2023-04-29T17:15:47.637Z,14.01
2023-04-29T17:18:14.077Z,14.00
2023-04-29T17:20:40.587Z,14.02
2023-04-29T17:23:07.041Z,14.03
2023-04-29T17:25:33.499Z,14.04
2023-04-29T17:28:00.231Z,14.06
2023-04-29T17:30:26.841Z,14.08
2023-04-29T17:32:53.599Z,14.11
2023-04-29T17:35:21.272Z,14.13
2023-04-29T17:37:48.729Z,14.11
2023-04-29T17:40:16.119Z,14.12
2023-04-29T17:42:43.459Z,14.13
2023-04-29T17:45:10.378Z,14.14
2023-04-29T17:47:36.867Z,14.13
2023-04-29T17:50:03.808Z,14.15
2023-04-29T17:52:30.308Z,14.13
2023-04-29T17:54:56.717Z,14.13
2023-04-29T17:57:23.166Z,14.11
2023-04-29T17:59:49.712Z,14.10
2023-04-29T18:02:16.345Z,14.07
2023-04-29T18:04:42.790Z,14.04
2023-04-29T18:07:09.232Z,14.01
2023-04-29T18:09:35.753Z,13.99
2023-04-29T18:12:02.368Z,13.98
2023-04-29T18:14:30.556Z,13.97
2023-04-29T18:16:59.665Z,13.96
2023-04-29T18:19:33.477Z,13.93
2023-04-29T18:22:02.670Z,13.91
2023-04-29T18:24:29.396Z,13.86
2023-04-29T18:26:57.192Z,13.85
2023-04-29T18:29:23.707Z,13.83
2023-04-29T18:31:50.233Z,13.81
2023-04-29T18:34:16.736Z,13.78
2023-04-29T18:36:43.174Z,13.76
2023-04-29T18:39:09.711Z,13.76
2023-04-29T18:41:36.673Z,13.71
2023-04-29T18:44:03.054Z,13.70
2023-04-29T18:46:30.504Z,13.68
2023-04-29T18:48:57.041Z,13.65
2023-04-29T18:51:23.674Z,13.62
2023-04-29T18:53:50.297Z,13.58
2023-04-29T18:56:16.725Z,13.57
2023-04-29T18:58:43.136Z,13.53
2023-04-29T19:01:09.857Z,13.50
2023-04-29T19:03:36.619Z,13.46
2023-04-29T19:06:03.702Z,13.43
2023-04-29T19:08:30.156Z,13.41
2023-04-29T19:10:57.985Z,13.37
2023-04-29T19:13:26.591Z,13.32
2023-04-29T19:15:55.006Z,13.29
2023-04-29T19:18:23.087Z,13.27
2023-04-29T19:20:49.987Z,13.24
2023-04-29T19:23:16.383Z,13.21
2023-04-29T19:25:42.888Z,13.18
2023-04-29T19:28:10.119Z,13.15
2023-04-29T19:30:36.597Z,13.13
2023-04-29T19:33:03.203Z,13.07
2023-04-29T19:35:29.704Z,13.05
2023-04-29T19:37:56.079Z,13.00
2023-04-29T19:40:22.509Z,12.97
2023-04-29T19:42:48.910Z,12.94
2023-04-29T19:45:15.397Z,12.91
2023-04-29T19:47:41.853Z,12.87
2023-04-29T19:50:09.648Z,12.82
2023-04-29T19:52:36.117Z,12.78
2023-04-29T19:55:02.501Z,12.74
2023-04-29T19:57:28.955Z,12.70
2023-04-29T19:59:55.703Z,12.65
2023-04-29T20:02:22.413Z,12.59
2023-04-29T20:04:48.932Z,12.55
2023-04-29T20:07:15.462Z,12.47
2023-04-29T20:09:42.039Z,12.39
2023-04-29T20:12:08.480Z,12.35
2023-04-29T20:14:34.927Z,12.28
2023-04-29T20:17:01.552Z,12.22
2023-04-29T20:19:28.143Z,12.14
2023-04-29T20:21:54.608Z,12.10
2023-04-29T20:24:21.121Z,12.06
2023-04-29T20:26:47.754Z,12.01
2023-04-29T20:29:14.288Z,11.95
2023-04-29T20:31:40.840Z,11.91
2023-04-29T20:34:07.317Z,11.87
2023-04-29T20:36:34.492Z,11.83
2023-04-29T20:39:01.394Z,11.79
2023-04-29T20:41:28.908Z,11.76
2023-04-29T20:43:56.023Z,11.72
2023-04-29T20:46:24.651Z,11.69
2023-04-29T20:48:52.451Z,11.67
2023-04-29T20:51:18.954Z,11.66
2023-04-29T20:53:45.913Z,11.64
2023-04-29T20:56:13.524Z,11.63
2023-04-29T20:58:39.955Z,11.63
2023-04-29T21:01:06.562Z,11.61
2023-04-29T21:03:32.984Z,11.63
2023-04-29T21:05:59.391Z,11.62
2023-04-29T21:08:25.912Z,11.60
2023-04-29T21:10:52.362Z,11.60
2023-04-29T21:13:18.843Z,11.60
2023-04-29T21:15:46.476Z,11.60
2023-04-29T21:18:13.587Z,11.59
2023-04-29T21:20:40.442Z,11.57
2023-04-29T21:23:06.813Z,11.55
2023-04-29T21:25:33.243Z,11.54
2023-04-29T21:27:59.676Z,11.53
2023-04-29T21:30:26.097Z,11.51
2023-04-29T21:32:53.345Z,11.48
2023-04-29T21:35:19.818Z,11.46
2023-04-29T21:37:47.129Z,11.44
2023-04-29T21:40:14.371Z,11.43
2023-04-29T21:42:43.472Z,11.42
2023-04-29T21:45:10.619Z,11.40
2023-04-29T21:47:37.126Z,11.39
2023-04-29T21:50:03.611Z,11.38
2023-04-29T21:52:34.846Z,11.37
2023-04-29T21:55:04.901Z,11.37
2023-04-29T21:57:42.725Z,11.36
2023-04-29T22:00:20.656Z,11.34
2023-04-29T22:02:47.380Z,11.33
2023-04-29T22:05:13.967Z,11.31
2023-04-29T22:07:40.689Z,11.32
2023-04-29T22:10:07.556Z,11.30
2023-04-29T22:12:33.946Z,11.28
2023-04-29T22:15:00.354Z,11.29
2023-04-29T22:17:26.730Z,11.28
2023-04-29T22:19:53.468Z,11.29
2023-04-29T22:22:20.032Z,11.31
2023-04-29T22:24:46.424Z,11.30
2023-04-29T22:27:12.871Z,11.31
2023-04-29T22:29:39.403Z,11.31
2023-04-29T22:32:05.924Z,11.29
2023-04-29T22:34:32.413Z,11.29
2023-04-29T22:36:58.804Z,11.29
2023-04-29T22:39:25.268Z,11.29
2023-04-29T22:41:51.628Z,11.27
2023-04-29T22:44:18.021Z,11.26
2023-04-29T22:46:44.477Z,11.24
2023-04-29T22:49:10.954Z,11.23
2023-04-29T22:51:37.472Z,11.21
2023-04-29T22:54:03.953Z,11.21
2023-04-29T22:56:30.445Z,11.19
2023-04-29T22:58:56.894Z,11.18
2023-04-29T23:01:23.372Z,11.17
2023-04-29T23:03:49.791Z,11.15
2023-04-29T23:06:16.430Z,11.15
2023-04-29T23:08:44.504Z,11.13
2023-04-29T23:11:12.053Z,11.13
2023-04-29T23:13:39.143Z,11.14
2023-04-29T23:16:07.123Z,11.12
2023-04-29T23:18:35.008Z,11.12
2023-04-29T23:21:01.404Z,11.10
2023-04-29T23:23:27.843Z,11.10
2023-04-29T23:25:54.264Z,11.11
2023-04-29T23:28:21.118Z,11.09
2023-04-29T23:30:48.175Z,11.09
2023-04-29T23:33:14.712Z,11.08
2023-04-29T23:35:41.114Z,11.07
2023-04-29T23:38:07.588Z,11.05
2023-04-29T23:40:34.160Z,11.06
2023-04-29T23:43:00.644Z,11.05
2023-04-29T23:45:27.079Z,11.06
2023-04-29T23:47:53.553Z,11.07
2023-04-29T23:50:20.042Z,11.05
2023-04-29T23:52:46.454Z,11.06
2023-04-29T23:55:12.879Z,11.05
2023-04-29T23:57:39.291Z,11.06
